sensor_id;sensor_type;location;lat;lon;timestamp;P1;durP1;ratioP1;P2;durP2;ratioP2
37647;SDS011;23490;53.656;10.076;2023-10-13T00:01:48;8.27;;;1.33;;
37647;SDS011;23490;53.656;10.076;2023-10-13T00:04:17;4.63;;;1.88;;
37647;SDS011;23490;53.656;10.076;2023-10-13T00:06:52;5.55;;;1.63;;
37647;SDS011;23490;53.656;10.076;2023-10-13T00:09:24;4.43;;;1.02;;
37647;SDS011;23490;53.656;10.076;2023-10-13T00:11:51;4.45;;;1.10;;
37647;SDS011;23490;53.656;10.076;2023-10-13T00:14:18;6.07;;;1.17;;
37647;SDS011;23490;53.656;10.076;2023-10-13T00:16:46;4.95;;;1.23;;
37647;SDS011;23490;53.656;10.076;2023-10-13T00:19:30;4.63;;;1.40;;
37647;SDS011;23490;53.656;10.076;2023-10-13T00:22:09;3.97;;;1.23;;
37647;SDS011;23490;53.656;10.076;2023-10-13T00:24:36;7.28;;;2.22;;
37647;SDS011;23490;53.656;10.076;2023-10-13T00:32:48;5.80;;;1.75;;
37647;SDS011;23490;53.656;10.076;2023-10-13T00:35:21;4.05;;;1.50;;
37647;SDS011;23490;53.656;10.076;2023-10-13T00:40:22;6.30;;;1.75;;
37647;SDS011;23490;53.656;10.076;2023-10-13T00:42:59;6.45;;;2.25;;
37647;SDS011;23490;53.656;10.076;2023-10-13T00:45:54;5.20;;;1.50;;
37647;SDS011;23490;53.656;10.076;2023-10-13T00:48:35;7.80;;;1.70;;
37647;SDS011;23490;53.656;10.076;2023-10-13T00:51:07;4.40;;;1.58;;
37647;SDS011;23490;53.656;10.076;2023-10-13T00:53:37;3.83;;;1.88;;
37647;SDS011;23490;53.656;10.076;2023-10-13T00:56:07;8.30;;;3.00;;
37647;SDS011;23490;53.656;10.076;2023-10-13T00:58:34;5.78;;;1.77;;
37647;SDS011;23490;53.656;10.076;2023-10-13T01:01:00;4.78;;;2.35;;
37647;SDS011;23490;53.656;10.076;2023-10-13T01:03:43;5.35;;;2.22;;
37647;SDS011;23490;53.656;10.076;2023-10-13T01:06:13;13.73;;;4.22;;
37647;SDS011;23490;53.656;10.076;2023-10-13T01:08:41;5.07;;;1.95;;
37647;SDS011;23490;53.656;10.076;2023-10-13T01:11:09;7.45;;;2.35;;
37647;SDS011;23490;53.656;10.076;2023-10-13T01:13:35;9.00;;;2.63;;
37647;SDS011;23490;53.656;10.076;2023-10-13T01:16:06;4.90;;;1.80;;
37647;SDS011;23490;53.656;10.076;2023-10-13T01:18:32;8.68;;;2.50;;
37647;SDS011;23490;53.656;10.076;2023-10-13T01:21:05;6.40;;;2.45;;
37647;SDS011;23490;53.656;10.076;2023-10-13T01:23:31;10.32;;;2.83;;
37647;SDS011;23490;53.656;10.076;2023-10-13T01:26:03;8.05;;;3.08;;
37647;SDS011;23490;53.656;10.076;2023-10-13T01:28:30;5.40;;;2.28;;
37647;SDS011;23490;53.656;10.076;2023-10-13T01:31:09;8.32;;;2.75;;
37647;SDS011;23490;53.656;10.076;2023-10-13T01:33:34;9.05;;;2.58;;
37647;SDS011;23490;53.656;10.076;2023-10-13T01:35:59;10.90;;;3.55;;
37647;SDS011;23490;53.656;10.076;2023-10-13T01:38:31;7.75;;;2.88;;
37647;SDS011;23490;53.656;10.076;2023-10-13T01:40:58;6.75;;;2.75;;
37647;SDS011;23490;53.656;10.076;2023-10-13T01:43:24;7.50;;;2.85;;
37647;SDS011;23490;53.656;10.076;2023-10-13T01:45:49;8.10;;;3.80;;
37647;SDS011;23490;53.656;10.076;2023-10-13T01:48:15;9.50;;;3.00;;
37647;SDS011;23490;53.656;10.076;2023-10-13T01:50:43;12.55;;;3.40;;
37647;SDS011;23490;53.656;10.076;2023-10-13T01:53:13;10.00;;;3.90;;
37647;SDS011;23490;53.656;10.076;2023-10-13T01:55:42;11.40;;;4.28;;
37647;SDS011;23490;53.656;10.076;2023-10-13T01:58:11;12.07;;;3.92;;
37647;SDS011;23490;53.656;10.076;2023-10-13T02:00:45;10.75;;;4.13;;
37647;SDS011;23490;53.656;10.076;2023-10-13T02:03:12;13.63;;;4.05;;
37647;SDS011;23490;53.656;10.076;2023-10-13T02:05:45;11.77;;;3.93;;
37647;SDS011;23490;53.656;10.076;2023-10-13T02:08:18;13.95;;;4.88;;
37647;SDS011;23490;53.656;10.076;2023-10-13T02:10:54;19.17;;;6.05;;
37647;SDS011;23490;53.656;10.076;2023-10-13T02:13:20;13.38;;;5.00;;
37647;SDS011;23490;53.656;10.076;2023-10-13T02:15:54;15.90;;;5.45;;
37647;SDS011;23490;53.656;10.076;2023-10-13T02:18:21;14.25;;;5.07;;
37647;SDS011;23490;53.656;10.076;2023-10-13T02:21:06;14.20;;;4.35;;
37647;SDS011;23490;53.656;10.076;2023-10-13T02:23:37;21.40;;;7.57;;
37647;SDS011;23490;53.656;10.076;2023-10-13T02:26:11;18.20;;;6.80;;
37647;SDS011;23490;53.656;10.076;2023-10-13T02:28:55;17.05;;;4.78;;
37647;SDS011;23490;53.656;10.076;2023-10-13T02:31:22;15.20;;;5.75;;
37647;SDS011;23490;53.656;10.076;2023-10-13T02:33:49;15.95;;;5.07;;
37647;SDS011;23490;53.656;10.076;2023-10-13T02:36:15;13.73;;;4.68;;
37647;SDS011;23490;53.656;10.076;2023-10-13T02:38:47;13.82;;;5.82;;
37647;SDS011;23490;53.656;10.076;2023-10-13T02:41:16;15.95;;;7.35;;
37647;SDS011;23490;53.656;10.076;2023-10-13T02:43:51;15.10;;;5.65;;
37647;SDS011;23490;53.656;10.076;2023-10-13T02:46:17;15.80;;;6.47;;
37647;SDS011;23490;53.656;10.076;2023-10-13T02:48:43;11.63;;;5.28;;
37647;SDS011;23490;53.656;10.076;2023-10-13T02:51:11;17.60;;;6.30;;
37647;SDS011;23490;53.656;10.076;2023-10-13T02:53:43;13.82;;;5.47;;
37647;SDS011;23490;53.656;10.076;2023-10-13T02:56:15;19.13;;;6.15;;
37647;SDS011;23490;53.656;10.076;2023-10-13T02:58:46;20.20;;;6.55;;
37647;SDS011;23490;53.656;10.076;2023-10-13T03:01:17;18.52;;;5.43;;
37647;SDS011;23490;53.656;10.076;2023-10-13T03:03:49;23.40;;;7.65;;
37647;SDS011;23490;53.656;10.076;2023-10-13T03:06:25;13.40;;;5.88;;
37647;SDS011;23490;53.656;10.076;2023-10-13T03:09:07;14.57;;;5.78;;
37647;SDS011;23490;53.656;10.076;2023-10-13T03:11:43;19.92;;;5.45;;
37647;SDS011;23490;53.656;10.076;2023-10-13T03:14:13;19.50;;;5.70;;
37647;SDS011;23490;53.656;10.076;2023-10-13T03:16:57;15.30;;;5.95;;
37647;SDS011;23490;53.656;10.076;2023-10-13T03:19:41;14.63;;;5.80;;
37647;SDS011;23490;53.656;10.076;2023-10-13T03:22:16;16.67;;;5.78;;
37647;SDS011;23490;53.656;10.076;2023-10-13T03:24:43;14.18;;;5.13;;
37647;SDS011;23490;53.656;10.076;2023-10-13T03:27:12;20.75;;;7.80;;
37647;SDS011;23490;53.656;10.076;2023-10-13T03:29:41;14.93;;;6.70;;
37647;SDS011;23490;53.656;10.076;2023-10-13T03:32:12;16.73;;;6.22;;
37647;SDS011;23490;53.656;10.076;2023-10-13T03:34:40;13.10;;;6.15;;
37647;SDS011;23490;53.656;10.076;2023-10-13T03:37:25;15.82;;;6.40;;
37647;SDS011;23490;53.656;10.076;2023-10-13T03:40:04;15.20;;;6.40;;
37647;SDS011;23490;53.656;10.076;2023-10-13T03:42:54;13.82;;;6.03;;
37647;SDS011;23490;53.656;10.076;2023-10-13T03:45:38;14.03;;;5.70;;
37647;SDS011;23490;53.656;10.076;2023-10-13T03:50:41;12.73;;;4.65;;
37647;SDS011;23490;53.656;10.076;2023-10-13T03:53:25;14.25;;;4.63;;
37647;SDS011;23490;53.656;10.076;2023-10-13T03:55:58;11.43;;;4.38;;
37647;SDS011;23490;53.656;10.076;2023-10-13T03:58:37;10.05;;;4.18;;
37647;SDS011;23490;53.656;10.076;2023-10-13T04:01:04;10.80;;;4.38;;
37647;SDS011;23490;53.656;10.076;2023-10-13T04:03:34;7.95;;;3.85;;
37647;SDS011;23490;53.656;10.076;2023-10-13T04:06:01;9.70;;;4.32;;
37647;SDS011;23490;53.656;10.076;2023-10-13T04:08:33;10.98;;;3.78;;
37647;SDS011;23490;53.656;10.076;2023-10-13T04:11:08;9.80;;;3.92;;
37647;SDS011;23490;53.656;10.076;2023-10-13T04:13:52;7.20;;;3.22;;
37647;SDS011;23490;53.656;10.076;2023-10-13T04:16:36;8.32;;;3.25;;
37647;SDS011;23490;53.656;10.076;2023-10-13T04:19:02;7.65;;;3.00;;
37647;SDS011;23490;53.656;10.076;2023-10-13T04:21:27;7.05;;;3.70;;
37647;SDS011;23490;53.656;10.076;2023-10-13T04:24:08;8.82;;;3.40;;
37647;SDS011;23490;53.656;10.076;2023-10-13T04:26:50;10.00;;;4.00;;
37647;SDS011;23490;53.656;10.076;2023-10-13T04:29:35;10.68;;;4.03;;
37647;SDS011;23490;53.656;10.076;2023-10-13T04:32:19;9.13;;;4.13;;
37647;SDS011;23490;53.656;10.076;2023-10-13T04:34:57;8.40;;;4.43;;
37647;SDS011;23490;53.656;10.076;2023-10-13T04:40:13;10.13;;;5.15;;
37647;SDS011;23490;53.656;10.076;2023-10-13T04:42:39;11.48;;;5.00;;
37647;SDS011;23490;53.656;10.076;2023-10-13T04:45:15;11.90;;;5.10;;
37647;SDS011;23490;53.656;10.076;2023-10-13T04:48:04;13.50;;;5.72;;
37647;SDS011;23490;53.656;10.076;2023-10-13T04:50:59;14.32;;;5.82;;
37647;SDS011;23490;53.656;10.076;2023-10-13T04:54:04;16.25;;;5.55;;
37647;SDS011;23490;53.656;10.076;2023-10-13T04:56:37;14.55;;;5.65;;
37647;SDS011;23490;53.656;10.076;2023-10-13T04:59:20;18.27;;;6.22;;
37647;SDS011;23490;53.656;10.076;2023-10-13T05:02:06;14.20;;;5.85;;
37647;SDS011;23490;53.656;10.076;2023-10-13T05:04:50;17.33;;;7.50;;
37647;SDS011;23490;53.656;10.076;2023-10-13T05:07:31;19.20;;;7.28;;
37647;SDS011;23490;53.656;10.076;2023-10-13T05:10:15;19.45;;;7.80;;
37647;SDS011;23490;53.656;10.076;2023-10-13T05:12:59;16.25;;;7.82;;
37647;SDS011;23490;53.656;10.076;2023-10-13T05:15:44;17.20;;;7.43;;
37647;SDS011;23490;53.656;10.076;2023-10-13T05:18:31;22.17;;;7.38;;
37647;SDS011;23490;53.656;10.076;2023-10-13T05:21:15;22.13;;;8.70;;
37647;SDS011;23490;53.656;10.076;2023-10-13T05:23:58;16.67;;;7.78;;
37647;SDS011;23490;53.656;10.076;2023-10-13T05:26:42;19.83;;;8.43;;
37647;SDS011;23490;53.656;10.076;2023-10-13T05:29:26;19.98;;;9.05;;
37647;SDS011;23490;53.656;10.076;2023-10-13T05:32:10;21.67;;;8.57;;
37647;SDS011;23490;53.656;10.076;2023-10-13T05:34:54;20.05;;;7.70;;
37647;SDS011;23490;53.656;10.076;2023-10-13T05:37:38;21.15;;;9.48;;
37647;SDS011;23490;53.656;10.076;2023-10-13T05:40:22;19.77;;;8.00;;
37647;SDS011;23490;53.656;10.076;2023-10-13T05:43:06;18.95;;;7.25;;
37647;SDS011;23490;53.656;10.076;2023-10-13T05:45:50;20.25;;;8.48;;
37647;SDS011;23490;53.656;10.076;2023-10-13T05:48:47;21.30;;;8.82;;
37647;SDS011;23490;53.656;10.076;2023-10-13T05:51:25;23.45;;;8.73;;
37647;SDS011;23490;53.656;10.076;2023-10-13T05:53:58;22.88;;;9.10;;
37647;SDS011;23490;53.656;10.076;2023-10-13T05:56:42;21.63;;;8.23;;
37647;SDS011;23490;53.656;10.076;2023-10-13T05:59:28;19.83;;;8.60;;
37647;SDS011;23490;53.656;10.076;2023-10-13T06:02:13;24.70;;;9.75;;
37647;SDS011;23490;53.656;10.076;2023-10-13T06:05:02;17.63;;;8.90;;
37647;SDS011;23490;53.656;10.076;2023-10-13T06:07:50;20.08;;;9.05;;
37647;SDS011;23490;53.656;10.076;2023-10-13T06:10:35;21.27;;;9.68;;
37647;SDS011;23490;53.656;10.076;2023-10-13T06:13:19;22.13;;;9.35;;
37647;SDS011;23490;53.656;10.076;2023-10-13T06:16:06;24.08;;;11.00;;
37647;SDS011;23490;53.656;10.076;2023-10-13T06:18:57;20.50;;;9.18;;
37647;SDS011;23490;53.656;10.076;2023-10-13T06:21:42;19.92;;;9.55;;
37647;SDS011;23490;53.656;10.076;2023-10-13T06:24:26;21.30;;;9.25;;
37647;SDS011;23490;53.656;10.076;2023-10-13T06:27:11;22.85;;;9.63;;
37647;SDS011;23490;53.656;10.076;2023-10-13T06:29:55;25.58;;;10.10;;
37647;SDS011;23490;53.656;10.076;2023-10-13T06:32:20;23.88;;;10.40;;
37647;SDS011;23490;53.656;10.076;2023-10-13T06:37:16;23.48;;;11.30;;
37647;SDS011;23490;53.656;10.076;2023-10-13T06:39:56;25.85;;;11.23;;
37647;SDS011;23490;53.656;10.076;2023-10-13T06:42:25;20.95;;;9.65;;
37647;SDS011;23490;53.656;10.076;2023-10-13T06:44:54;23.45;;;10.70;;
37647;SDS011;23490;53.656;10.076;2023-10-13T06:47:20;25.73;;;10.77;;
37647;SDS011;23490;53.656;10.076;2023-10-13T06:49:47;26.15;;;11.05;;
37647;SDS011;23490;53.656;10.076;2023-10-13T06:52:16;27.13;;;11.10;;
37647;SDS011;23490;53.656;10.076;2023-10-13T06:54:42;27.83;;;12.18;;
37647;SDS011;23490;53.656;10.076;2023-10-13T06:57:08;24.08;;;9.95;;
37647;SDS011;23490;53.656;10.076;2023-10-13T06:59:42;24.25;;;10.65;;
37647;SDS011;23490;53.656;10.076;2023-10-13T07:02:07;26.30;;;10.98;;
37647;SDS011;23490;53.656;10.076;2023-10-13T07:04:35;24.13;;;11.07;;
37647;SDS011;23490;53.656;10.076;2023-10-13T07:07:04;25.13;;;12.07;;
37647;SDS011;23490;53.656;10.076;2023-10-13T07:09:35;27.77;;;11.27;;
37647;SDS011;23490;53.656;10.076;2023-10-13T07:12:01;22.33;;;10.68;;
37647;SDS011;23490;53.656;10.076;2023-10-13T07:14:32;25.25;;;11.27;;
37647;SDS011;23490;53.656;10.076;2023-10-13T07:17:02;25.20;;;11.93;;
37647;SDS011;23490;53.656;10.076;2023-10-13T07:19:30;22.45;;;11.25;;
37647;SDS011;23490;53.656;10.076;2023-10-13T07:21:56;25.05;;;11.63;;
37647;SDS011;23490;53.656;10.076;2023-10-13T07:24:44;23.13;;;12.10;;
37647;SDS011;23490;53.656;10.076;2023-10-13T07:27:13;22.08;;;10.38;;
37647;SDS011;23490;53.656;10.076;2023-10-13T07:29:51;28.77;;;13.02;;
37647;SDS011;23490;53.656;10.076;2023-10-13T07:32:30;29.83;;;14.55;;
37647;SDS011;23490;53.656;10.076;2023-10-13T07:34:59;26.92;;;14.20;;
37647;SDS011;23490;53.656;10.076;2023-10-13T07:37:34;26.80;;;12.90;;
37647;SDS011;23490;53.656;10.076;2023-10-13T07:40:00;27.13;;;11.98;;
37647;SDS011;23490;53.656;10.076;2023-10-13T07:42:26;26.02;;;12.63;;
37647;SDS011;23490;53.656;10.076;2023-10-13T07:44:57;27.27;;;12.98;;
37647;SDS011;23490;53.656;10.076;2023-10-13T07:47:23;25.17;;;13.73;;
37647;SDS011;23490;53.656;10.076;2023-10-13T07:49:52;22.20;;;11.15;;
37647;SDS011;23490;53.656;10.076;2023-10-13T07:52:17;26.27;;;12.27;;
37647;SDS011;23490;53.656;10.076;2023-10-13T07:54:46;21.23;;;11.13;;
37647;SDS011;23490;53.656;10.076;2023-10-13T07:57:17;18.63;;;11.10;;
37647;SDS011;23490;53.656;10.076;2023-10-13T07:59:43;24.55;;;11.60;;
37647;SDS011;23490;53.656;10.076;2023-10-13T08:02:18;22.33;;;10.75;;
37647;SDS011;23490;53.656;10.076;2023-10-13T08:05:13;21.58;;;10.23;;
37647;SDS011;23490;53.656;10.076;2023-10-13T08:07:42;18.02;;;9.80;;
37647;SDS011;23490;53.656;10.076;2023-10-13T08:10:08;18.80;;;9.45;;
37647;SDS011;23490;53.656;10.076;2023-10-13T08:12:35;20.33;;;9.85;;
37647;SDS011;23490;53.656;10.076;2023-10-13T08:15:02;17.98;;;9.50;;
37647;SDS011;23490;53.656;10.076;2023-10-13T08:17:47;21.33;;;9.38;;
37647;SDS011;23490;53.656;10.076;2023-10-13T08:20:12;18.15;;;7.88;;
37647;SDS011;23490;53.656;10.076;2023-10-13T08:22:39;15.82;;;8.57;;
37647;SDS011;23490;53.656;10.076;2023-10-13T08:25:12;17.38;;;8.93;;
37647;SDS011;23490;53.656;10.076;2023-10-13T08:27:51;16.00;;;7.63;;
37647;SDS011;23490;53.656;10.076;2023-10-13T08:30:51;15.77;;;6.57;;
37647;SDS011;23490;53.656;10.076;2023-10-13T08:33:22;17.15;;;6.82;;
37647;SDS011;23490;53.656;10.076;2023-10-13T08:35:51;11.88;;;6.93;;
37647;SDS011;23490;53.656;10.076;2023-10-13T08:38:21;12.35;;;6.60;;
37647;SDS011;23490;53.656;10.076;2023-10-13T08:40:53;15.20;;;6.90;;
37647;SDS011;23490;53.656;10.076;2023-10-13T08:43:42;12.95;;;6.35;;
37647;SDS011;23490;53.656;10.076;2023-10-13T08:46:15;13.95;;;6.78;;
37647;SDS011;23490;53.656;10.076;2023-10-13T08:48:55;13.63;;;6.50;;
37647;SDS011;23490;53.656;10.076;2023-10-13T08:51:40;10.30;;;6.07;;
37647;SDS011;23490;53.656;10.076;2023-10-13T08:54:13;14.15;;;6.75;;
37647;SDS011;23490;53.656;10.076;2023-10-13T08:56:58;10.48;;;5.80;;
37647;SDS011;23490;53.656;10.076;2023-10-13T08:59:31;11.60;;;5.75;;
37647;SDS011;23490;53.656;10.076;2023-10-13T09:02:18;8.30;;;5.15;;
37647;SDS011;23490;53.656;10.076;2023-10-13T09:04:47;9.63;;;5.43;;
37647;SDS011;23490;53.656;10.076;2023-10-13T09:07:24;10.18;;;5.05;;
37647;SDS011;23490;53.656;10.076;2023-10-13T09:09:50;12.75;;;5.47;;
37647;SDS011;23490;53.656;10.076;2023-10-13T09:14:50;9.52;;;5.32;;
37647;SDS011;23490;53.656;10.076;2023-10-13T09:17:26;7.40;;;4.15;;
37647;SDS011;23490;53.656;10.076;2023-10-13T09:19:58;14.98;;;6.00;;
37647;SDS011;23490;53.656;10.076;2023-10-13T09:22:36;10.82;;;5.30;;
37647;SDS011;23490;53.656;10.076;2023-10-13T09:25:02;7.13;;;3.78;;
37647;SDS011;23490;53.656;10.076;2023-10-13T09:27:30;7.28;;;3.95;;
37647;SDS011;23490;53.656;10.076;2023-10-13T09:30:03;10.38;;;4.70;;
37647;SDS011;23490;53.656;10.076;2023-10-13T09:33:01;7.40;;;3.75;;
37647;SDS011;23490;53.656;10.076;2023-10-13T09:35:29;6.80;;;3.83;;
37647;SDS011;23490;53.656;10.076;2023-10-13T09:37:59;9.05;;;4.72;;
37647;SDS011;23490;53.656;10.076;2023-10-13T09:40:27;6.95;;;4.30;;
37647;SDS011;23490;53.656;10.076;2023-10-13T09:43:13;6.90;;;3.90;;
37647;SDS011;23490;53.656;10.076;2023-10-13T09:45:43;8.80;;;4.13;;
37647;SDS011;23490;53.656;10.076;2023-10-13T09:48:33;6.93;;;3.95;;
37647;SDS011;23490;53.656;10.076;2023-10-13T09:51:04;8.55;;;4.10;;
37647;SDS011;23490;53.656;10.076;2023-10-13T09:53:33;8.02;;;4.40;;
37647;SDS011;23490;53.656;10.076;2023-10-13T09:56:03;7.57;;;3.55;;
37647;SDS011;23490;53.656;10.076;2023-10-13T09:59:22;10.25;;;3.88;;
37647;SDS011;23490;53.656;10.076;2023-10-13T10:01:37;10.18;;;4.07;;
37647;SDS011;23490;53.656;10.076;2023-10-13T10:04:15;6.50;;;3.45;;
37647;SDS011;23490;53.656;10.076;2023-10-13T10:06:53;6.70;;;3.25;;
37647;SDS011;23490;53.656;10.076;2023-10-13T10:09:29;6.78;;;3.45;;
37647;SDS011;23490;53.656;10.076;2023-10-13T10:15:03;6.40;;;3.72;;
37647;SDS011;23490;53.656;10.076;2023-10-13T10:17:38;7.38;;;3.42;;
37647;SDS011;23490;53.656;10.076;2023-10-13T10:20:08;13.60;;;4.97;;
37647;SDS011;23490;53.656;10.076;2023-10-13T10:22:40;9.73;;;4.07;;
37647;SDS011;23490;53.656;10.076;2023-10-13T10:25:13;10.02;;;3.70;;
37647;SDS011;23490;53.656;10.076;2023-10-13T10:27:59;12.40;;;4.40;;
37647;SDS011;23490;53.656;10.076;2023-10-13T10:30:27;9.00;;;3.38;;
37647;SDS011;23490;53.656;10.076;2023-10-13T10:32:54;10.93;;;4.00;;
37647;SDS011;23490;53.656;10.076;2023-10-13T10:35:31;7.13;;;3.17;;
37647;SDS011;23490;53.656;10.076;2023-10-13T10:38:13;8.20;;;4.13;;
37647;SDS011;23490;53.656;10.076;2023-10-13T10:40:52;12.15;;;4.68;;
37647;SDS011;23490;53.656;10.076;2023-10-13T10:45:51;8.80;;;3.92;;
37647;SDS011;23490;53.656;10.076;2023-10-13T10:48:18;8.25;;;4.43;;
37647;SDS011;23490;53.656;10.076;2023-10-13T10:51:05;11.88;;;4.45;;
37647;SDS011;23490;53.656;10.076;2023-10-13T10:53:39;7.30;;;3.33;;
37647;SDS011;23490;53.656;10.076;2023-10-13T10:56:11;8.50;;;3.78;;
37647;SDS011;23490;53.656;10.076;2023-10-13T10:58:56;8.98;;;4.05;;
37647;SDS011;23490;53.656;10.076;2023-10-13T11:01:23;6.97;;;4.05;;
37647;SDS011;23490;53.656;10.076;2023-10-13T11:03:54;9.50;;;3.90;;
37647;SDS011;23490;53.656;10.076;2023-10-13T11:06:23;8.02;;;3.85;;
37647;SDS011;23490;53.656;10.076;2023-10-13T11:09:00;6.57;;;3.63;;
37647;SDS011;23490;53.656;10.076;2023-10-13T11:11:29;8.48;;;3.25;;
37647;SDS011;23490;53.656;10.076;2023-10-13T11:14:01;10.95;;;4.28;;
37647;SDS011;23490;53.656;10.076;2023-10-13T11:16:47;7.25;;;3.47;;
37647;SDS011;23490;53.656;10.076;2023-10-13T11:19:41;7.85;;;4.00;;
37647;SDS011;23490;53.656;10.076;2023-10-13T11:24:55;8.98;;;3.90;;
37647;SDS011;23490;53.656;10.076;2023-10-13T11:27:27;7.85;;;4.10;;
37647;SDS011;23490;53.656;10.076;2023-10-13T11:30:14;10.02;;;5.03;;
37647;SDS011;23490;53.656;10.076;2023-10-13T11:33:07;6.22;;;3.92;;
37647;SDS011;23490;53.656;10.076;2023-10-13T11:35:34;9.35;;;3.88;;
37647;SDS011;23490;53.656;10.076;2023-10-13T11:38:14;12.52;;;5.30;;
37647;SDS011;23490;53.656;10.076;2023-10-13T11:40:55;6.25;;;3.38;;
37647;SDS011;23490;53.656;10.076;2023-10-13T11:43:30;8.10;;;3.50;;
37647;SDS011;23490;53.656;10.076;2023-10-13T11:46:08;7.93;;;3.92;;
37647;SDS011;23490;53.656;10.076;2023-10-13T11:48:47;6.20;;;3.75;;
37647;SDS011;23490;53.656;10.076;2023-10-13T11:51:13;8.95;;;3.38;;
37647;SDS011;23490;53.656;10.076;2023-10-13T11:56:08;8.35;;;3.30;;
37647;SDS011;23490;53.656;10.076;2023-10-13T11:58:35;9.00;;;3.58;;
37647;SDS011;23490;53.656;10.076;2023-10-13T12:01:00;8.18;;;3.42;;
37647;SDS011;23490;53.656;10.076;2023-10-13T12:03:35;7.35;;;3.88;;
37647;SDS011;23490;53.656;10.076;2023-10-13T12:06:19;4.78;;;3.03;;
37647;SDS011;23490;53.656;10.076;2023-10-13T12:08:48;6.18;;;3.15;;
37647;SDS011;23490;53.656;10.076;2023-10-13T12:11:17;6.43;;;3.30;;
37647;SDS011;23490;53.656;10.076;2023-10-13T12:13:55;6.40;;;2.97;;
37647;SDS011;23490;53.656;10.076;2023-10-13T12:16:21;5.18;;;2.90;;
37647;SDS011;23490;53.656;10.076;2023-10-13T12:18:47;5.28;;;2.28;;
37647;SDS011;23490;53.656;10.076;2023-10-13T12:21:18;6.07;;;2.70;;
37647;SDS011;23490;53.656;10.076;2023-10-13T12:23:46;8.43;;;2.60;;
37647;SDS011;23490;53.656;10.076;2023-10-13T12:26:12;6.18;;;3.00;;
37647;SDS011;23490;53.656;10.076;2023-10-13T12:28:44;5.75;;;2.78;;
37647;SDS011;23490;53.656;10.076;2023-10-13T12:31:16;9.45;;;4.47;;
37647;SDS011;23490;53.656;10.076;2023-10-13T12:33:42;7.82;;;2.72;;
37647;SDS011;23490;53.656;10.076;2023-10-13T12:36:12;6.53;;;3.13;;
37647;SDS011;23490;53.656;10.076;2023-10-13T12:38:52;7.32;;;2.80;;
37647;SDS011;23490;53.656;10.076;2023-10-13T12:41:37;4.65;;;2.40;;
37647;SDS011;23490;53.656;10.076;2023-10-13T12:44:21;4.22;;;2.30;;
37647;SDS011;23490;53.656;10.076;2023-10-13T12:47:05;5.18;;;2.63;;
37647;SDS011;23490;53.656;10.076;2023-10-13T12:49:49;8.10;;;2.67;;
37647;SDS011;23490;53.656;10.076;2023-10-13T12:52:15;6.70;;;2.83;;
37647;SDS011;23490;53.656;10.076;2023-10-13T12:54:59;9.18;;;2.42;;
37647;SDS011;23490;53.656;10.076;2023-10-13T12:57:31;7.07;;;3.05;;
37647;SDS011;23490;53.656;10.076;2023-10-13T12:59:57;7.60;;;2.50;;
37647;SDS011;23490;53.656;10.076;2023-10-13T13:02:23;4.90;;;2.20;;
37647;SDS011;23490;53.656;10.076;2023-10-13T13:04:52;9.27;;;3.97;;
37647;SDS011;23490;53.656;10.076;2023-10-13T13:07:31;7.22;;;2.78;;
37647;SDS011;23490;53.656;10.076;2023-10-13T13:10:08;6.20;;;2.63;;
37647;SDS011;23490;53.656;10.076;2023-10-13T13:12:36;8.32;;;2.67;;
37647;SDS011;23490;53.656;10.076;2023-10-13T13:15:02;5.45;;;2.30;;
37647;SDS011;23490;53.656;10.076;2023-10-13T13:17:33;6.07;;;2.42;;
37647;SDS011;23490;53.656;10.076;2023-10-13T13:20:03;7.90;;;2.58;;
37647;SDS011;23490;53.656;10.076;2023-10-13T13:22:39;9.27;;;3.22;;
37647;SDS011;23490;53.656;10.076;2023-10-13T13:25:04;8.70;;;3.08;;
37647;SDS011;23490;53.656;10.076;2023-10-13T13:27:34;5.75;;;2.25;;
37647;SDS011;23490;53.656;10.076;2023-10-13T13:29:59;5.78;;;2.70;;
37647;SDS011;23490;53.656;10.076;2023-10-13T13:32:25;10.30;;;3.47;;
37647;SDS011;23490;53.656;10.076;2023-10-13T13:34:53;5.45;;;3.13;;
37647;SDS011;23490;53.656;10.076;2023-10-13T13:37:22;6.87;;;2.80;;
37647;SDS011;23490;53.656;10.076;2023-10-13T13:39:47;8.23;;;2.70;;
37647;SDS011;23490;53.656;10.076;2023-10-13T13:42:13;6.35;;;2.97;;
37647;SDS011;23490;53.656;10.076;2023-10-13T13:44:43;9.60;;;3.20;;
37647;SDS011;23490;53.656;10.076;2023-10-13T13:47:15;7.07;;;2.40;;
37647;SDS011;23490;53.656;10.076;2023-10-13T13:49:42;6.00;;;2.67;;
37647;SDS011;23490;53.656;10.076;2023-10-13T13:52:17;5.82;;;1.92;;
37647;SDS011;23490;53.656;10.076;2023-10-13T13:54:47;7.20;;;2.67;;
37647;SDS011;23490;53.656;10.076;2023-10-13T13:57:12;7.13;;;2.22;;
37647;SDS011;23490;53.656;10.076;2023-10-13T13:59:39;10.43;;;3.05;;
37647;SDS011;23490;53.656;10.076;2023-10-13T14:02:04;7.28;;;3.20;;
37647;SDS011;23490;53.656;10.076;2023-10-13T14:04:44;7.72;;;2.70;;
37647;SDS011;23490;53.656;10.076;2023-10-13T14:07:11;6.97;;;2.40;;
37647;SDS011;23490;53.656;10.076;2023-10-13T14:09:38;7.53;;;3.30;;
37647;SDS011;23490;53.656;10.076;2023-10-13T14:12:09;5.72;;;3.15;;
37647;SDS011;23490;53.656;10.076;2023-10-13T14:14:53;17.55;;;3.40;;
37647;SDS011;23490;53.656;10.076;2023-10-13T14:17:22;10.00;;;2.80;;
37647;SDS011;23490;53.656;10.076;2023-10-13T14:19:57;7.95;;;3.38;;
37647;SDS011;23490;53.656;10.076;2023-10-13T14:22:22;5.78;;;2.65;;
37647;SDS011;23490;53.656;10.076;2023-10-13T14:24:50;10.38;;;2.83;;
37647;SDS011;23490;53.656;10.076;2023-10-13T14:27:19;9.55;;;3.00;;
37647;SDS011;23490;53.656;10.076;2023-10-13T14:29:47;4.30;;;2.20;;
37647;SDS011;23490;53.656;10.076;2023-10-13T14:34:46;6.57;;;2.85;;
37647;SDS011;23490;53.656;10.076;2023-10-13T14:37:19;7.32;;;2.90;;
37647;SDS011;23490;53.656;10.076;2023-10-13T14:39:54;7.63;;;3.83;;
37647;SDS011;23490;53.656;10.076;2023-10-13T14:42:26;10.68;;;3.60;;
37647;SDS011;23490;53.656;10.076;2023-10-13T14:44:52;12.13;;;4.05;;
37647;SDS011;23490;53.656;10.076;2023-10-13T14:47:26;11.82;;;3.17;;
37647;SDS011;23490;53.656;10.076;2023-10-13T14:49:54;6.13;;;2.92;;
37647;SDS011;23490;53.656;10.076;2023-10-13T14:52:21;9.07;;;2.90;;
37647;SDS011;23490;53.656;10.076;2023-10-13T14:54:47;8.70;;;2.60;;
37647;SDS011;23490;53.656;10.076;2023-10-13T14:57:15;6.15;;;2.67;;
37647;SDS011;23490;53.656;10.076;2023-10-13T14:59:41;6.78;;;2.67;;
37647;SDS011;23490;53.656;10.076;2023-10-13T15:02:06;7.50;;;2.75;;
37647;SDS011;23490;53.656;10.076;2023-10-13T15:04:31;8.00;;;3.03;;
37647;SDS011;23490;53.656;10.076;2023-10-13T15:06:58;6.93;;;2.85;;
37647;SDS011;23490;53.656;10.076;2023-10-13T15:09:29;7.97;;;2.45;;
37647;SDS011;23490;53.656;10.076;2023-10-13T15:11:54;9.25;;;3.25;;
37647;SDS011;23490;53.656;10.076;2023-10-13T15:14:20;9.95;;;3.58;;
37647;SDS011;23490;53.656;10.076;2023-10-13T15:16:47;8.43;;;3.40;;
37647;SDS011;23490;53.656;10.076;2023-10-13T15:19:13;6.93;;;2.72;;
37647;SDS011;23490;53.656;10.076;2023-10-13T15:21:38;5.03;;;2.78;;
37647;SDS011;23490;53.656;10.076;2023-10-13T15:24:05;6.55;;;3.65;;
37647;SDS011;23490;53.656;10.076;2023-10-13T15:26:50;11.32;;;3.08;;
37647;SDS011;23490;53.656;10.076;2023-10-13T15:29:22;7.30;;;2.67;;
37647;SDS011;23490;53.656;10.076;2023-10-13T15:31:51;7.82;;;3.65;;
37647;SDS011;23490;53.656;10.076;2023-10-13T15:34:23;11.25;;;3.30;;
37647;SDS011;23490;53.656;10.076;2023-10-13T15:36:51;10.82;;;4.28;;